sensor_id;sensor_type;location;lat;lon;timestamp;P1;durP1;ratioP1;P2;durP2;ratioP2
66384;SDS011;53426;55.872;37.462;2024-03-08T00:02:10;5.57;;;4.70;;
66384;SDS011;53426;55.872;37.462;2024-03-08T00:04:36;7.45;;;4.65;;
66384;SDS011;53426;55.872;37.462;2024-03-08T00:07:04;7.35;;;4.63;;
66384;SDS011;53426;55.872;37.462;2024-03-08T00:09:29;10.05;;;4.60;;
66384;SDS011;53426;55.872;37.462;2024-03-08T00:11:56;5.28;;;4.38;;
66384;SDS011;53426;55.872;37.462;2024-03-08T00:14:22;5.40;;;4.45;;
66384;SDS011;53426;55.872;37.462;2024-03-08T00:16:48;5.65;;;4.30;;
66384;SDS011;53426;55.872;37.462;2024-03-08T00:19:15;6.63;;;4.40;;
66384;SDS011;53426;55.872;37.462;2024-03-08T00:21:42;7.57;;;4.30;;
66384;SDS011;53426;55.872;37.462;2024-03-08T00:24:10;7.40;;;4.70;;
66384;SDS011;53426;55.872;37.462;2024-03-08T00:26:37;5.40;;;4.18;;
66384;SDS011;53426;55.872;37.462;2024-03-08T00:29:03;7.63;;;4.38;;
66384;SDS011;53426;55.872;37.462;2024-03-08T00:31:47;7.82;;;4.20;;
66384;SDS011;53426;55.872;37.462;2024-03-08T00:39:54;5.07;;;4.18;;
66384;SDS011;53426;55.872;37.462;2024-03-08T00:42:22;5.18;;;3.67;;
66384;SDS011;53426;55.872;37.462;2024-03-08T00:44:49;5.47;;;4.22;;
66384;SDS011;53426;55.872;37.462;2024-03-08T00:47:16;3.47;;;3.13;;
66384;SDS011;53426;55.872;37.462;2024-03-08T00:49:43;4.65;;;3.97;;
66384;SDS011;53426;55.872;37.462;2024-03-08T00:52:09;6.15;;;4.00;;
66384;SDS011;53426;55.872;37.462;2024-03-08T00:54:35;4.30;;;3.47;;
66384;SDS011;53426;55.872;37.462;2024-03-08T00:57:06;5.03;;;4.13;;
66384;SDS011;53426;55.872;37.462;2024-03-08T01:03:39;3.85;;;3.33;;
66384;SDS011;53426;55.872;37.462;2024-03-08T01:06:06;4.38;;;3.67;;
66384;SDS011;53426;55.872;37.462;2024-03-08T01:08:32;5.00;;;3.42;;
66384;SDS011;53426;55.872;37.462;2024-03-08T01:10:58;6.60;;;4.50;;
66384;SDS011;53426;55.872;37.462;2024-03-08T01:13:24;6.63;;;3.63;;
66384;SDS011;53426;55.872;37.462;2024-03-08T01:15:53;5.22;;;4.03;;
66384;SDS011;53426;55.872;37.462;2024-03-08T01:18:20;7.95;;;3.80;;
66384;SDS011;53426;55.872;37.462;2024-03-08T01:20:46;6.20;;;3.72;;
66384;SDS011;53426;55.872;37.462;2024-03-08T01:23:12;4.82;;;3.78;;
66384;SDS011;53426;55.872;37.462;2024-03-08T01:25:38;7.22;;;3.80;;
66384;SDS011;53426;55.872;37.462;2024-03-08T01:28:04;7.85;;;3.90;;
66384;SDS011;53426;55.872;37.462;2024-03-08T01:30:32;4.70;;;3.92;;
66384;SDS011;53426;55.872;37.462;2024-03-08T01:33:00;7.18;;;4.00;;
66384;SDS011;53426;55.872;37.462;2024-03-08T01:35:26;7.95;;;3.88;;
66384;SDS011;53426;55.872;37.462;2024-03-08T01:37:52;9.00;;;4.25;;
66384;SDS011;53426;55.872;37.462;2024-03-08T01:40:20;4.95;;;4.18;;
66384;SDS011;53426;55.872;37.462;2024-03-08T01:42:46;4.15;;;3.70;;
66384;SDS011;53426;55.872;37.462;2024-03-08T01:45:13;5.60;;;3.90;;
66384;SDS011;53426;55.872;37.462;2024-03-08T01:47:40;6.38;;;3.70;;
66384;SDS011;53426;55.872;37.462;2024-03-08T01:50:08;7.70;;;3.47;;
66384;SDS011;53426;55.872;37.462;2024-03-08T01:52:36;3.90;;;3.33;;
66384;SDS011;53426;55.872;37.462;2024-03-08T01:55:02;5.47;;;4.25;;
66384;SDS011;53426;55.872;37.462;2024-03-08T01:57:32;6.70;;;4.25;;
66384;SDS011;53426;55.872;37.462;2024-03-08T02:00:03;4.35;;;3.95;;
66384;SDS011;53426;55.872;37.462;2024-03-08T02:02:32;6.32;;;4.18;;
66384;SDS011;53426;55.872;37.462;2024-03-08T02:05:01;4.13;;;3.72;;
66384;SDS011;53426;55.872;37.462;2024-03-08T02:07:29;6.60;;;4.00;;
66384;SDS011;53426;55.872;37.462;2024-03-08T02:09:59;5.50;;;3.45;;
66384;SDS011;53426;55.872;37.462;2024-03-08T02:12:29;6.53;;;3.97;;
66384;SDS011;53426;55.872;37.462;2024-03-08T02:14:55;6.43;;;4.05;;
66384;SDS011;53426;55.872;37.462;2024-03-08T02:17:24;6.38;;;3.63;;
66384;SDS011;53426;55.872;37.462;2024-03-08T02:19:50;5.45;;;3.78;;
66384;SDS011;53426;55.872;37.462;2024-03-08T02:22:16;7.03;;;4.55;;
66384;SDS011;53426;55.872;37.462;2024-03-08T02:24:43;8.25;;;4.53;;
66384;SDS011;53426;55.872;37.462;2024-03-08T02:27:09;8.55;;;4.03;;
66384;SDS011;53426;55.872;37.462;2024-03-08T02:29:40;6.97;;;4.57;;
66384;SDS011;53426;55.872;37.462;2024-03-08T02:32:12;5.15;;;4.15;;
66384;SDS011;53426;55.872;37.462;2024-03-08T02:34:38;8.82;;;5.07;;
66384;SDS011;53426;55.872;37.462;2024-03-08T02:37:08;7.63;;;4.28;;
66384;SDS011;53426;55.872;37.462;2024-03-08T02:39:34;5.38;;;4.70;;
66384;SDS011;53426;55.872;37.462;2024-03-08T02:42:26;7.85;;;4.05;;
66384;SDS011;53426;55.872;37.462;2024-03-08T02:44:52;6.50;;;4.97;;
66384;SDS011;53426;55.872;37.462;2024-03-08T02:47:18;5.78;;;4.15;;
66384;SDS011;53426;55.872;37.462;2024-03-08T02:53:08;6.10;;;4.60;;
66384;SDS011;53426;55.872;37.462;2024-03-08T02:55:35;7.55;;;5.63;;
66384;SDS011;53426;55.872;37.462;2024-03-08T02:59:40;6.07;;;4.28;;
66384;SDS011;53426;55.872;37.462;2024-03-08T03:04:59;5.05;;;4.55;;
66384;SDS011;53426;55.872;37.462;2024-03-08T03:07:28;6.22;;;4.82;;
66384;SDS011;53426;55.872;37.462;2024-03-08T03:09:54;5.55;;;5.00;;
66384;SDS011;53426;55.872;37.462;2024-03-08T03:12:20;8.20;;;5.38;;
66384;SDS011;53426;55.872;37.462;2024-03-08T03:14:46;7.03;;;4.88;;
66384;SDS011;53426;55.872;37.462;2024-03-08T03:17:12;5.90;;;4.55;;
66384;SDS011;53426;55.872;37.462;2024-03-08T03:19:40;5.47;;;4.60;;
66384;SDS011;53426;55.872;37.462;2024-03-08T03:22:09;10.57;;;5.05;;
66384;SDS011;53426;55.872;37.462;2024-03-08T03:24:36;6.00;;;5.28;;
66384;SDS011;53426;55.872;37.462;2024-03-08T03:27:04;7.07;;;5.53;;
66384;SDS011;53426;55.872;37.462;2024-03-08T03:29:37;9.30;;;5.50;;
66384;SDS011;53426;55.872;37.462;2024-03-08T03:32:11;7.15;;;5.32;;
66384;SDS011;53426;55.872;37.462;2024-03-08T03:34:41;7.00;;;5.75;;
66384;SDS011;53426;55.872;37.462;2024-03-08T03:41:37;8.90;;;5.70;;
66384;SDS011;53426;55.872;37.462;2024-03-08T03:47:10;11.38;;;6.22;;
66384;SDS011;53426;55.872;37.462;2024-03-08T03:50:45;6.88;;;5.53;;
66384;SDS011;53426;55.872;37.462;2024-03-08T03:53:11;7.30;;;5.78;;
66384;SDS011;53426;55.872;37.462;2024-03-08T03:55:38;11.63;;;6.18;;
66384;SDS011;53426;55.872;37.462;2024-03-08T03:58:04;8.63;;;5.88;;
66384;SDS011;53426;55.872;37.462;2024-03-08T04:03:19;7.88;;;6.38;;
66384;SDS011;53426;55.872;37.462;2024-03-08T04:05:46;10.15;;;5.72;;
66384;SDS011;53426;55.872;37.462;2024-03-08T04:08:19;8.38;;;5.03;;
66384;SDS011;53426;55.872;37.462;2024-03-08T04:10:48;5.53;;;3.97;;
66384;SDS011;53426;55.872;37.462;2024-03-08T04:13:13;7.50;;;6.30;;
66384;SDS011;53426;55.872;37.462;2024-03-08T04:15:42;7.93;;;6.22;;
66384;SDS011;53426;55.872;37.462;2024-03-08T04:18:13;11.73;;;7.05;;
66384;SDS011;53426;55.872;37.462;2024-03-08T04:20:39;10.05;;;7.50;;
66384;SDS011;53426;55.872;37.462;2024-03-08T04:23:08;19.40;;;7.72;;
66384;SDS011;53426;55.872;37.462;2024-03-08T04:29:52;11.77;;;7.07;;
66384;SDS011;53426;55.872;37.462;2024-03-08T04:32:18;8.48;;;6.18;;
66384;SDS011;53426;55.872;37.462;2024-03-08T04:37:40;10.88;;;7.10;;
66384;SDS011;53426;55.872;37.462;2024-03-08T04:45:55;11.95;;;7.97;;
66384;SDS011;53426;55.872;37.462;2024-03-08T04:58:21;9.50;;;6.10;;
66384;SDS011;53426;55.872;37.462;2024-03-08T05:00:47;10.18;;;7.10;;
66384;SDS011;53426;55.872;37.462;2024-03-08T05:03:13;13.07;;;7.00;;
66384;SDS011;53426;55.872;37.462;2024-03-08T05:05:39;10.02;;;5.63;;
66384;SDS011;53426;55.872;37.462;2024-03-08T05:08:05;10.98;;;6.75;;
66384;SDS011;53426;55.872;37.462;2024-03-08T05:10:32;9.73;;;5.72;;
66384;SDS011;53426;55.872;37.462;2024-03-08T05:12:58;7.65;;;5.97;;
66384;SDS011;53426;55.872;37.462;2024-03-08T05:15:24;10.57;;;6.97;;
66384;SDS011;53426;55.872;37.462;2024-03-08T05:17:51;9.98;;;5.80;;
66384;SDS011;53426;55.872;37.462;2024-03-08T05:20:17;12.98;;;6.25;;
66384;SDS011;53426;55.872;37.462;2024-03-08T05:22:46;11.05;;;6.57;;
66384;SDS011;53426;55.872;37.462;2024-03-08T05:25:12;10.25;;;5.80;;
66384;SDS011;53426;55.872;37.462;2024-03-08T05:27:47;9.82;;;6.95;;
66384;SDS011;53426;55.872;37.462;2024-03-08T05:30:18;9.95;;;6.35;;
66384;SDS011;53426;55.872;37.462;2024-03-08T05:32:47;9.52;;;6.82;;
66384;SDS011;53426;55.872;37.462;2024-03-08T05:35:13;10.00;;;6.13;;
66384;SDS011;53426;55.872;37.462;2024-03-08T05:40:42;9.20;;;5.88;;
66384;SDS011;53426;55.872;37.462;2024-03-08T05:43:12;8.23;;;5.85;;
66384;SDS011;53426;55.872;37.462;2024-03-08T05:49:20;6.85;;;5.68;;
66384;SDS011;53426;55.872;37.462;2024-03-08T05:51:47;7.22;;;5.22;;
66384;SDS011;53426;55.872;37.462;2024-03-08T05:54:13;9.50;;;6.22;;
66384;SDS011;53426;55.872;37.462;2024-03-08T05:59:31;7.35;;;6.10;;
66384;SDS011;53426;55.872;37.462;2024-03-08T06:02:00;8.45;;;6.07;;
66384;SDS011;53426;55.872;37.462;2024-03-08T06:04:28;12.07;;;6.68;;
66384;SDS011;53426;55.872;37.462;2024-03-08T06:07:40;11.32;;;6.13;;
66384;SDS011;53426;55.872;37.462;2024-03-08T06:09:56;6.40;;;5.32;;
66384;SDS011;53426;55.872;37.462;2024-03-08T06:12:22;6.90;;;5.25;;
66384;SDS011;53426;55.872;37.462;2024-03-08T06:14:49;8.18;;;6.22;;
66384;SDS011;53426;55.872;37.462;2024-03-08T06:17:19;7.78;;;5.90;;
66384;SDS011;53426;55.872;37.462;2024-03-08T06:19:54;11.38;;;6.40;;
66384;SDS011;53426;55.872;37.462;2024-03-08T06:22:20;9.95;;;6.60;;
66384;SDS011;53426;55.872;37.462;2024-03-08T06:25:01;10.05;;;5.90;;
66384;SDS011;53426;55.872;37.462;2024-03-08T06:27:32;7.43;;;5.90;;
66384;SDS011;53426;55.872;37.462;2024-03-08T06:30:04;7.18;;;5.38;;
66384;SDS011;53426;55.872;37.462;2024-03-08T06:35:34;12.13;;;7.18;;
66384;SDS011;53426;55.872;37.462;2024-03-08T06:38:27;12.35;;;7.72;;
66384;SDS011;53426;55.872;37.462;2024-03-08T06:40:53;9.23;;;6.40;;
66384;SDS011;53426;55.872;37.462;2024-03-08T06:43:20;9.95;;;6.47;;
66384;SDS011;53426;55.872;37.462;2024-03-08T06:45:47;6.72;;;5.72;;
66384;SDS011;53426;55.872;37.462;2024-03-08T06:48:18;6.75;;;5.35;;
66384;SDS011;53426;55.872;37.462;2024-03-08T06:50:45;10.70;;;5.95;;
66384;SDS011;53426;55.872;37.462;2024-03-08T06:53:12;7.07;;;5.40;;
66384;SDS011;53426;55.872;37.462;2024-03-08T06:55:42;7.80;;;6.15;;
66384;SDS011;53426;55.872;37.462;2024-03-08T06:58:09;7.50;;;6.00;;
66384;SDS011;53426;55.872;37.462;2024-03-08T07:00:36;7.20;;;5.30;;
66384;SDS011;53426;55.872;37.462;2024-03-08T07:03:03;10.00;;;6.03;;
66384;SDS011;53426;55.872;37.462;2024-03-08T07:05:33;6.90;;;4.82;;
66384;SDS011;53426;55.872;37.462;2024-03-08T07:08:00;8.10;;;5.78;;
66384;SDS011;53426;55.872;37.462;2024-03-08T07:10:26;7.47;;;6.00;;
66384;SDS011;53426;55.872;37.462;2024-03-08T07:12:55;9.40;;;6.55;;
66384;SDS011;53426;55.872;37.462;2024-03-08T07:15:25;9.65;;;6.20;;
66384;SDS011;53426;55.872;37.462;2024-03-08T07:17:54;7.40;;;5.65;;
66384;SDS011;53426;55.872;37.462;2024-03-08T07:21:07;13.77;;;7.90;;
66384;SDS011;53426;55.872;37.462;2024-03-08T07:23:43;7.03;;;5.65;;
66384;SDS011;53426;55.872;37.462;2024-03-08T07:26:20;8.60;;;6.53;;
66384;SDS011;53426;55.872;37.462;2024-03-08T07:28:46;9.23;;;6.75;;
66384;SDS011;53426;55.872;37.462;2024-03-08T07:31:12;17.15;;;6.43;;
66384;SDS011;53426;55.872;37.462;2024-03-08T07:37:01;8.57;;;6.68;;
66384;SDS011;53426;55.872;37.462;2024-03-08T07:39:28;12.73;;;6.70;;
66384;SDS011;53426;55.872;37.462;2024-03-08T07:44:44;8.27;;;6.28;;
66384;SDS011;53426;55.872;37.462;2024-03-08T07:47:13;9.07;;;7.15;;
66384;SDS011;53426;55.872;37.462;2024-03-08T07:49:40;11.18;;;7.53;;
66384;SDS011;53426;55.872;37.462;2024-03-08T07:55:02;9.68;;;6.30;;
66384;SDS011;53426;55.872;37.462;2024-03-08T07:57:29;8.55;;;6.07;;
66384;SDS011;53426;55.872;37.462;2024-03-08T08:02:53;9.60;;;6.55;;
66384;SDS011;53426;55.872;37.462;2024-03-08T08:05:37;7.88;;;6.45;;
66384;SDS011;53426;55.872;37.462;2024-03-08T08:08:05;7.45;;;6.18;;
66384;SDS011;53426;55.872;37.462;2024-03-08T08:10:33;5.60;;;4.45;;
66384;SDS011;53426;55.872;37.462;2024-03-08T08:12:59;6.72;;;5.95;;
66384;SDS011;53426;55.872;37.462;2024-03-08T08:15:26;8.63;;;5.95;;
66384;SDS011;53426;55.872;37.462;2024-03-08T08:17:53;5.75;;;5.15;;
66384;SDS011;53426;55.872;37.462;2024-03-08T08:20:19;8.10;;;5.97;;
66384;SDS011;53426;55.872;37.462;2024-03-08T08:22:47;9.93;;;6.07;;
66384;SDS011;53426;55.872;37.462;2024-03-08T08:25:13;6.80;;;5.68;;
66384;SDS011;53426;55.872;37.462;2024-03-08T08:32:22;5.93;;;4.72;;
66384;SDS011;53426;55.872;37.462;2024-03-08T08:36:10;8.10;;;6.30;;
66384;SDS011;53426;55.872;37.462;2024-03-08T08:39:03;7.22;;;5.53;;
66384;SDS011;53426;55.872;37.462;2024-03-08T08:41:48;11.20;;;6.00;;
66384;SDS011;53426;55.872;37.462;2024-03-08T08:44:14;10.50;;;6.35;;
66384;SDS011;53426;55.872;37.462;2024-03-08T08:46:40;11.98;;;6.82;;
66384;SDS011;53426;55.872;37.462;2024-03-08T08:49:07;8.98;;;6.18;;
66384;SDS011;53426;55.872;37.462;2024-03-08T08:51:38;10.07;;;6.15;;
66384;SDS011;53426;55.872;37.462;2024-03-08T08:54:06;11.50;;;6.20;;
66384;SDS011;53426;55.872;37.462;2024-03-08T08:56:32;6.57;;;5.88;;
66384;SDS011;53426;55.872;37.462;2024-03-08T08:59:01;7.28;;;5.03;;
66384;SDS011;53426;55.872;37.462;2024-03-08T09:01:32;6.72;;;5.75;;
66384;SDS011;53426;55.872;37.462;2024-03-08T09:04:07;9.82;;;6.05;;
66384;SDS011;53426;55.872;37.462;2024-03-08T09:13:10;10.05;;;6.43;;
66384;SDS011;53426;55.872;37.462;2024-03-08T09:15:37;8.75;;;6.38;;
66384;SDS011;53426;55.872;37.462;2024-03-08T09:18:13;8.07;;;5.65;;
66384;SDS011;53426;55.872;37.462;2024-03-08T09:20:39;14.27;;;5.80;;
66384;SDS011;53426;55.872;37.462;2024-03-08T09:23:27;10.13;;;5.85;;
66384;SDS011;53426;55.872;37.462;2024-03-08T09:26:01;8.98;;;6.30;;
66384;SDS011;53426;55.872;37.462;2024-03-08T09:28:33;8.17;;;6.83;;
66384;SDS011;53426;55.872;37.462;2024-03-08T09:31:28;11.75;;;6.80;;
66384;SDS011;53426;55.872;37.462;2024-03-08T09:34:41;23.17;;;5.93;;
66384;SDS011;53426;55.872;37.462;2024-03-08T09:37:16;7.22;;;5.65;;
66384;SDS011;53426;55.872;37.462;2024-03-08T09:51:13;8.80;;;6.78;;
66384;SDS011;53426;55.872;37.462;2024-03-08T09:53:43;14.43;;;7.35;;
66384;SDS011;53426;55.872;37.462;2024-03-08T09:56:24;9.75;;;7.15;;
66384;SDS011;53426;55.872;37.462;2024-03-08T09:59:10;9.43;;;7.03;;
66384;SDS011;53426;55.872;37.462;2024-03-08T10:05:41;9.48;;;7.50;;
66384;SDS011;53426;55.872;37.462;2024-03-08T10:08:12;9.68;;;7.28;;
66384;SDS011;53426;55.872;37.462;2024-03-08T10:10:59;10.07;;;6.95;;
66384;SDS011;53426;55.872;37.462;2024-03-08T10:13:28;13.63;;;7.93;;
66384;SDS011;53426;55.872;37.462;2024-03-08T10:15:55;10.00;;;7.55;;
66384;SDS011;53426;55.872;37.462;2024-03-08T10:18:33;8.32;;;7.18;;
66384;SDS011;53426;55.872;37.462;2024-03-08T10:21:02;10.48;;;8.10;;
66384;SDS011;53426;55.872;37.462;2024-03-08T10:23:36;14.10;;;7.32;;
66384;SDS011;53426;55.872;37.462;2024-03-08T10:26:10;9.20;;;7.50;;
66384;SDS011;53426;55.872;37.462;2024-03-08T10:38:17;9.75;;;7.60;;
66384;SDS011;53426;55.872;37.462;2024-03-08T10:40:51;9.68;;;6.88;;
66384;SDS011;53426;55.872;37.462;2024-03-08T10:43:24;11.25;;;8.15;;
66384;SDS011;53426;55.872;37.462;2024-03-08T10:45:56;12.20;;;8.18;;
66384;SDS011;53426;55.872;37.462;2024-03-08T10:48:43;11.60;;;7.82;;
66384;SDS011;53426;55.872;37.462;2024-03-08T10:54:30;9.52;;;7.30;;
66384;SDS011;53426;55.872;37.462;2024-03-08T10:57:14;10.85;;;7.57;;
66384;SDS011;53426;55.872;37.462;2024-03-08T10:59:43;10.57;;;7.95;;
66384;SDS011;53426;55.872;37.462;2024-03-08T11:02:11;10.55;;;6.93;;
66384;SDS011;53426;55.872;37.462;2024-03-08T11:05:09;9.00;;;7.07;;
66384;SDS011;53426;55.872;37.462;2024-03-08T11:07:41;9.60;;;7.22;;
66384;SDS011;53426;55.872;37.462;2024-03-08T11:10:18;12.50;;;8.20;;
66384;SDS011;53426;55.872;37.462;2024-03-08T11:12:47;7.43;;;6.47;;
66384;SDS011;53426;55.872;37.462;2024-03-08T11:15:23;9.80;;;7.15;;
66384;SDS011;53426;55.872;37.462;2024-03-08T11:22:20;9.70;;;7.50;;
66384;SDS011;53426;55.872;37.462;2024-03-08T11:34:55;12.07;;;7.15;;
66384;SDS011;53426;55.872;37.462;2024-03-08T11:44:17;9.80;;;6.63;;
66384;SDS011;53426;55.872;37.462;2024-03-08T11:46:43;11.25;;;7.72;;
66384;SDS011;53426;55.872;37.462;2024-03-08T11:49:16;9.02;;;7.28;;
66384;SDS011;53426;55.872;37.462;2024-03-08T11:55:29;11.60;;;8.07;;
66384;SDS011;53426;55.872;37.462;2024-03-08T12:03:08;8.32;;;6.50;;
66384;SDS011;53426;55.872;37.462;2024-03-08T12:08:34;9.90;;;7.10;;
66384;SDS011;53426;55.872;37.462;2024-03-08T12:11:07;9.63;;;7.38;;
66384;SDS011;53426;55.872;37.462;2024-03-08T12:13:35;11.30;;;8.05;;
66384;SDS011;53426;55.872;37.462;2024-03-08T12:32:03;11.27;;;6.68;;
66384;SDS011;53426;55.872;37.462;2024-03-08T12:40:51;9.18;;;5.95;;
66384;SDS011;53426;55.872;37.462;2024-03-08T12:43:30;7.28;;;5.68;;
66384;SDS011;53426;55.872;37.462;2024-03-08T12:45:56;14.93;;;6.68;;
66384;SDS011;53426;55.872;37.462;2024-03-08T12:48:26;10.20;;;7.32;;
66384;SDS011;53426;55.872;37.462;2024-03-08T12:52:15;8.40;;;5.93;;
66384;SDS011;53426;55.872;37.462;2024-03-08T12:59:00;10.15;;;7.50;;
66384;SDS011;53426;55.872;37.462;2024-03-08T13:01:34;7.90;;;6.03;;
66384;SDS011;53426;55.872;37.462;2024-03-08T13:04:21;9.85;;;6.85;;
66384;SDS011;53426;55.872;37.462;2024-03-08T13:06:50;9.50;;;6.30;;
66384;SDS011;53426;55.872;37.462;2024-03-08T13:09:17;10.27;;;6.30;;
66384;SDS011;53426;55.872;37.462;2024-03-08T13:14:33;8.43;;;6.82;;
66384;SDS011;53426;55.872;37.462;2024-03-08T13:17:04;6.88;;;5.80;;
66384;SDS011;53426;55.872;37.462;2024-03-08T13:28:32;10.88;;;6.43;;
66384;SDS011;53426;55.872;37.462;2024-03-08T13:31:06;7.35;;;5.40;;
66384;SDS011;53426;55.872;37.462;2024-03-08T13:33:38;7.55;;;5.78;;
66384;SDS011;53426;55.872;37.462;2024-03-08T13:36:05;10.65;;;5.78;;
66384;SDS011;53426;55.872;37.462;2024-03-08T13:38:45;14.20;;;5.90;;
66384;SDS011;53426;55.872;37.462;2024-03-08T13:41:16;7.70;;;5.80;;
66384;SDS011;53426;55.872;37.462;2024-03-08T13:43:46;6.90;;;5.93;;
66384;SDS011;53426;55.872;37.462;2024-03-08T13:46:22;10.20;;;6.28;;
66384;SDS011;53426;55.872;37.462;2024-03-08T13:48:49;7.80;;;6.35;;
66384;SDS011;53426;55.872;37.462;2024-03-08T13:51:28;8.30;;;5.90;;
66384;SDS011;53426;55.872;37.462;2024-03-08T13:54:46;11.02;;;6.38;;
66384;SDS011;53426;55.872;37.462;2024-03-08T13:57:12;9.63;;;6.43;;
66384;SDS011;53426;55.872;37.462;2024-03-08T13:59:39;9.15;;;6.30;;
66384;SDS011;53426;55.872;37.462;2024-03-08T14:02:15;9.13;;;5.85;;
66384;SDS011;53426;55.872;37.462;2024-03-08T14:04:42;6.80;;;5.22;;
66384;SDS011;53426;55.872;37.462;2024-03-08T14:07:08;8.10;;;6.20;;
66384;SDS011;53426;55.872;37.462;2024-03-08T14:09:36;8.55;;;6.07;;
66384;SDS011;53426;55.872;37.462;2024-03-08T14:12:10;7.97;;;5.47;;
66384;SDS011;53426;55.872;37.462;2024-03-08T14:14:36;8.73;;;5.88;;
66384;SDS011;53426;55.872;37.462;2024-03-08T14:17:02;7.60;;;5.75;;
66384;SDS011;53426;55.872;37.462;2024-03-08T14:19:55;7.75;;;4.88;;
66384;SDS011;53426;55.872;37.462;2024-03-08T14:22:21;7.95;;;5.45;;
66384;SDS011;53426;55.872;37.462;2024-03-08T14:24:47;11.52;;;6.05;;
66384;SDS011;53426;55.872;37.462;2024-03-08T14:27:15;7.25;;;4.65;;
66384;SDS011;53426;55.872;37.462;2024-03-08T14:29:44;8.02;;;5.47;;
66384;SDS011;53426;55.872;37.462;2024-03-08T14:32:11;44.45;;;10.90;;
66384;SDS011;53426;55.872;37.462;2024-03-08T14:34:38;7.93;;;5.40;;
66384;SDS011;53426;55.872;37.462;2024-03-08T14:37:04;7.75;;;5.20;;
66384;SDS011;53426;55.872;37.462;2024-03-08T14:39:33;25.10;;;7.57;;
66384;SDS011;53426;55.872;37.462;2024-03-08T14:42:00;7.28;;;5.30;;
66384;SDS011;53426;55.872;37.462;2024-03-08T14:44:28;7.10;;;5.38;;
66384;SDS011;53426;55.872;37.462;2024-03-08T14:46:57;8.93;;;5.63;;
66384;SDS011;53426;55.872;37.462;2024-03-08T14:49:25;11.77;;;5.30;;
66384;SDS011;53426;55.872;37.462;2024-03-08T14:51:57;7.30;;;5.90;;
66384;SDS011;53426;55.872;37.462;2024-03-08T14:55:04;10.05;;;6.88;;
66384;SDS011;53426;55.872;37.462;2024-03-08T15:07:44;12.10;;;5.72;;
66384;SDS011;53426;55.872;37.462;2024-03-08T15:10:15;6.40;;;4.95;;
66384;SDS011;53426;55.872;37.462;2024-03-08T15:13:26;8.50;;;5.00;;
66384;SDS011;53426;55.872;37.462;2024-03-08T15:16:07;9.23;;;6.20;;
66384;SDS011;53426;55.872;37.462;2024-03-08T15:18:42;9.25;;;6.15;;
66384;SDS011;53426;55.872;37.462;2024-03-08T15:21:38;12.65;;;5.75;;
66384;SDS011;53426;55.872;37.462;2024-03-08T15:24:17;9.65;;;5.78;;
66384;SDS011;53426;55.872;37.462;2024-03-08T15:26:53;8.95;;;5.30;;
66384;SDS011;53426;55.872;37.462;2024-03-08T15:29:21;9.63;;;5.93;;
66384;SDS011;53426;55.872;37.462;2024-03-08T15:31:52;12.88;;;6.18;;
66384;SDS011;53426;55.872;37.462;2024-03-08T15:34:25;8.38;;;5.90;;
66384;SDS011;53426;55.872;37.462;2024-03-08T15:36:54;11.45;;;6.78;;
66384;SDS011;53426;55.872;37.462;2024-03-08T15:39:25;6.95;;;5.63;;
66384;SDS011;53426;55.872;37.462;2024-03-08T15:41:52;9.57;;;5.45;;
66384;SDS011;53426;55.872;37.462;2024-03-08T15:44:48;8.13;;;5.60;;
66384;SDS011;53426;55.872;37.462;2024-03-08T15:47:14;9.20;;;5.60;;
66384;SDS011;53426;55.872;37.462;2024-03-08T15:49:44;7.60;;;5.57;;
66384;SDS011;53426;55.872;37.462;2024-03-08T15:52:10;8.82;;;6.22;;
66384;SDS011;53426;55.872;37.462;2024-03-08T15:54:42;9.85;;;5.90;;
66384;SDS011;53426;55.872;37.462;2024-03-08T15:57:09;10.20;;;6.25;;
66384;SDS011;53426;55.872;37.462;2024-03-08T15:59:42;11.25;;;5.60;;
66384;SDS011;53426;55.872;37.462;2024-03-08T16:05:09;9.73;;;6.13;;
66384;SDS011;53426;55.872;37.462;2024-03-08T16:07:40;10.55;;;6.30;;
66384;SDS011;53426;55.872;37.462;2024-03-08T16:10:10;9.40;;;5.95;;
66384;SDS011;53426;55.872;37.462;2024-03-08T16:12:47;8.77;;;6.10;;
66384;SDS011;53426;55.872;37.462;2024-03-08T16:19:56;9.15;;;5.68;;
66384;SDS011;53426;55.872;37.462;2024-03-08T16:22:23;11.25;;;5.93;;
66384;SDS011;53426;55.872;37.462;2024-03-08T16:27:58;10.20;;;5.90;;
66384;SDS011;53426;55.872;37.462;2024-03-08T16:49:51;8.93;;;5.35;;
66384;SDS011;53426;55.872;37.462;2024-03-08T16:52:24;9.65;;;6.00;;
66384;SDS011;53426;55.872;37.462;2024-03-08T16:54:51;10.85;;;6.18;;
66384;SDS011;53426;55.872;37.462;2024-03-08T17:10:26;10.52;;;6.70;;
66384;SDS011;53426;55.872;37.462;2024-03-08T17:17:20;14.50;;;6.55;;
66384;SDS011;53426;55.872;37.462;2024-03-08T17:19:49;9.20;;;6.00;;
66384;SDS011;53426;55.872;37.462;2024-03-08T17:22:19;12.55;;;6.82;;
66384;SDS011;53426;55.872;37.462;2024-03-08T17:24:45;6.97;;;4.97;;
66384;SDS011;53426;55.872;37.462;2024-03-08T17:27:10;8.35;;;5.63;;
66384;SDS011;53426;55.872;37.462;2024-03-08T17:29:39;7.50;;;4.50;;
66384;SDS011;53426;55.872;37.462;2024-03-08T17:32:05;8.80;;;5.63;;
66384;SDS011;53426;55.872;37.462;2024-03-08T17:34:32;6.95;;;5.45;;
66384;SDS011;53426;55.872;37.462;2024-03-08T17:36:58;10.30;;;5.75;;
66384;SDS011;53426;55.872;37.462;2024-03-08T17:39:24;7.07;;;5.43;;
66384;SDS011;53426;55.872;37.462;2024-03-08T17:41:55;9.45;;;5.90;;
66384;SDS011;53426;55.872;37.462;2024-03-08T17:44:22;7.65;;;5.32;;
66384;SDS011;53426;55.872;37.462;2024-03-08T17:49:44;10.23;;;5.55;;
66384;SDS011;53426;55.872;37.462;2024-03-08T17:52:10;7.90;;;5.20;;
66384;SDS011;53426;55.872;37.462;2024-03-08T17:54:36;9.30;;;5.85;;
66384;SDS011;53426;55.872;37.462;2024-03-08T17:57:02;13.07;;;5.68;;
66384;SDS011;53426;55.872;37.462;2024-03-08T17:59:28;8.38;;;5.95;;
66384;SDS011;53426;55.872;37.462;2024-03-08T18:05:51;7.18;;;5.35;;
66384;SDS011;53426;55.872;37.462;2024-03-08T18:08:17;10.20;;;5.60;;
66384;SDS011;53426;55.872;37.462;2024-03-08T18:10:43;10.25;;;5.90;;
66384;SDS011;53426;55.872;37.462;2024-03-08T18:25:33;5.80;;;4.63;;
66384;SDS011;53426;55.872;37.462;2024-03-08T18:28:01;9.55;;;5.45;;
66384;SDS011;53426;55.872;37.462;2024-03-08T18:30:31;8.52;;;5.43;;
66384;SDS011;53426;55.872;37.462;2024-03-08T18:32:58;5.97;;;4.35;;
66384;SDS011;53426;55.872;37.462;2024-03-08T18:35:26;8.77;;;4.70;;
66384;SDS011;53426;55.872;37.462;2024-03-08T18:37:52;5.07;;;3.70;;
66384;SDS011;53426;55.872;37.462;2024-03-08T18:40:21;7.32;;;4.07;;
66384;SDS011;53426;55.872;37.462;2024-03-08T18:42:49;5.45;;;4.03;;
66384;SDS011;53426;55.872;37.462;2024-03-08T18:45:20;4.80;;;3.58;;
66384;SDS011;53426;55.872;37.462;2024-03-08T18:47:56;6.80;;;3.25;;
66384;SDS011;53426;55.872;37.462;2024-03-08T18:50:40;5.25;;;3.50;;
66384;SDS011;53426;55.872;37.462;2024-03-08T19:02:16;5.55;;;3.50;;
66384;SDS011;53426;55.872;37.462;2024-03-08T19:05:00;9.50;;;4.28;;
66384;SDS011;53426;55.872;37.462;2024-03-08T19:18:08;4.43;;;2.85;;
66384;SDS011;53426;55.872;37.462;2024-03-08T19:20:41;4.15;;;2.30;;
66384;SDS011;53426;55.872;37.462;2024-03-08T19:23:32;2.95;;;2.50;;
66384;SDS011;53426;55.872;37.462;2024-03-08T19:30:19;10.23;;;2.80;;
66384;SDS011;53426;55.872;37.462;2024-03-08T19:32:57;2.92;;;2.25;;
66384;SDS011;53426;55.872;37.462;2024-03-08T19:36:06;1.88;;;1.77;;
66384;SDS011;53426;55.872;37.462;2024-03-08T20:02:13;2.35;;;1.83;;
66384;SDS011;53426;55.872;37.462;2024-03-08T20:04:56;3.20;;;2.42;;
66384;SDS011;53426;55.872;37.462;2024-03-08T20:07:31;2.78;;;2.38;;